Terminal Aerodrome Forecast
Issued by NWS Wichita, KS

Home | Current Version | Previous Version | Text Only | Print | Product List | Glossary On
Versions: 1 2 3 4 5 6 7 8 9 10 11 12 13 14 15
000
FTUS43 KICT 011700
TAFICT
TAF
KICT 011740Z 0118/0218 18011KT P6SM SCT035
     FM012300 VRB06KT P6SM VCTS SCT040CB
     FM020900 17011KT P6SM VCTS SCT015 BKN040CB
     FM021500 33014KT P6SM VCTS SCT015 BKN030CB=

USA.gov is the U.S. government's official web portal to all federal, state and local government web resources and services.